Time;durP1;ratioP1;P1;durP2;ratioP2;P2;SDS_P1;SDS_P2;PMS_P1;PMS_P2;Temp;Humidity;BMP_temperature;BMP_pressure;BME280_temperature;BME280_humidity;BME280_pressure;Samples;Min_cycle;Max_cycle;Signal;HPM_P1;HPM_P2
2023/09/12 00:00:42;;;;;;;28.87;23.63;;;16.20;99.90;15.60;100162;;;;562948;250;24099;-76
2023/09/12 00:03:10;;;;;;;28.63;22.77;;;16.20;99.90;15.60;100151;;;;562733;250;24143;-75
2023/09/12 00:05:43;;;;;;;31.00;22.47;;;16.20;99.90;15.60;100152;;;;562441;250;24109;-75
2023/09/12 00:08:08;;;;;;;27.43;22.77;;;16.20;99.90;15.60;100151;;;;562323;250;24110;-75
2023/09/12 00:10:36;;;;;;;27.63;22.47;;;16.30;99.90;15.60;100159;;;;562636;251;24131;-74
2023/09/12 00:13:05;;;;;;;25.87;21.77;;;16.30;99.90;15.60;100158;;;;562388;251;24141;-74
2023/09/12 00:15:34;;;;;;;26.30;21.90;;;16.30;99.90;15.70;100159;;;;562177;251;24186;-75
2023/09/12 00:18:05;;;;;;;28.20;22.10;;;16.30;99.90;15.70;100152;;;;562605;251;24160;-81
2023/09/12 00:20:30;;;;;;;23.20;20.70;;;16.30;99.90;15.70;100150;;;;562336;251;24158;-81
2023/09/12 00:22:58;;;;;;;28.33;20.70;;;16.30;99.90;15.70;100150;;;;562548;251;24143;-78
2023/09/12 00:25:26;;;;;;;21.73;18.60;;;16.30;99.90;15.70;100153;;;;562534;251;24139;-79
2023/09/12 00:27:54;;;;;;;23.73;20.43;;;16.30;99.90;15.70;100151;;;;562564;251;24132;-78
2023/09/12 00:30:22;;;;;;;26.00;19.57;;;16.30;99.90;15.70;100147;;;;562174;251;24156;-74
2023/09/12 00:32:50;;;;;;;29.67;20.70;;;16.40;99.90;15.70;100155;;;;562092;251;24137;-74
2023/09/12 00:35:18;;;;;;;20.23;18.10;;;16.40;99.90;15.80;100147;;;;562120;251;24137;-76
2023/09/12 00:37:46;;;;;;;24.50;18.67;;;16.40;99.90;15.80;100150;;;;561836;251;24184;-79
2023/09/12 00:40:14;;;;;;;22.50;18.53;;;16.40;99.90;15.80;100147;;;;562040;251;24112;-76
2023/09/12 00:42:43;;;;;;;21.80;19.00;;;16.40;99.90;15.80;100140;;;;562106;251;24104;-75
2023/09/12 00:45:11;;;;;;;21.40;17.87;;;16.40;99.90;15.70;100146;;;;561978;251;24161;-77
2023/09/12 00:47:39;;;;;;;23.50;18.67;;;16.40;99.90;15.80;100148;;;;562134;250;24111;-79
2023/09/12 00:50:07;;;;;;;21.50;18.57;;;16.40;99.90;15.80;100141;;;;562311;251;24105;-79
2023/09/12 00:52:38;;;;;;;21.17;18.37;;;16.40;99.90;15.80;100137;;;;571847;251;24172;-76
2023/09/12 00:55:03;;;;;;;23.73;18.43;;;16.40;99.90;15.80;100148;;;;562301;251;24105;-79
2023/09/12 00:57:31;;;;;;;24.77;18.87;;;16.40;99.90;15.80;100143;;;;573232;246;24076;-85
2023/09/12 00:59:59;;;;;;;24.80;19.17;;;16.40;99.90;15.80;100134;;;;573848;246;24093;-76
2023/09/12 01:02:27;;;;;;;25.00;18.53;;;16.40;99.90;15.80;100142;;;;574398;246;24122;-82
2023/09/12 01:04:55;;;;;;;26.77;19.57;;;16.40;99.90;15.80;100140;;;;561920;251;24112;-83
2023/09/12 01:07:23;;;;;;;24.93;19.73;;;16.40;99.90;15.80;100137;;;;561866;251;24124;-83
2023/09/12 01:09:50;;;;;;;25.57;19.50;;;16.40;99.90;15.80;100128;;;;561969;251;24165;-85
2023/09/12 01:12:22;;;;;;;22.17;18.73;;;16.40;99.90;15.80;100137;;;;562994;250;24184;-84
2023/09/12 01:14:50;;;;;;;20.37;17.97;;;16.40;99.90;15.80;100137;;;;562458;250;24144;-84
2023/09/12 01:17:17;;;;;;;25.83;19.07;;;16.40;99.90;15.80;100129;;;;562470;250;24182;-83
2023/09/12 01:19:45;;;;;;;20.33;18.10;;;16.40;99.90;15.80;100125;;;;569791;250;24138;-82
2023/09/12 01:22:28;;;;;;;19.93;17.70;;;16.40;99.90;15.80;100133;;;;562613;251;24121;-81
2023/09/12 01:25:08;;;;;;;21.40;18.23;;;16.40;99.90;15.80;100132;;;;562279;251;24201;-77
2023/09/12 01:27:45;;;;;;;21.40;18.53;;;16.40;99.90;15.80;100137;;;;562554;251;24151;-75
2023/09/12 01:30:13;;;;;;;23.67;19.50;;;16.40;99.90;15.80;100141;;;;562457;251;24101;-79
2023/09/12 01:32:41;;;;;;;20.53;18.13;;;16.40;99.90;15.80;100137;;;;561902;251;24104;-76
2023/09/12 01:35:09;;;;;;;20.50;17.97;;;16.40;99.90;15.80;100140;;;;561987;251;24131;-76
2023/09/12 01:37:37;;;;;;;21.10;18.73;;;16.50;99.90;15.80;100134;;;;562194;251;24155;-80
2023/09/12 01:40:10;;;;;;;22.67;19.17;;;16.40;99.90;15.80;100136;;;;562053;251;24122;-82
2023/09/12 01:42:46;;;;;;;21.50;18.70;;;16.40;99.90;15.80;100142;;;;564846;251;24223;-76
2023/09/12 01:45:16;;;;;;;21.83;17.77;;;16.40;99.90;15.80;100136;;;;562073;251;24182;-81
2023/09/12 01:47:44;;;;;;;23.73;18.20;;;16.40;99.90;15.80;100138;;;;561963;251;24156;-80
2023/09/12 01:50:17;;;;;;;21.27;17.87;;;16.40;99.90;15.80;100143;;;;561759;251;24139;-75
2023/09/12 01:52:45;;;;;;;20.50;18.30;;;16.40;99.90;15.80;100142;;;;561673;251;24194;-76
2023/09/12 01:55:11;;;;;;;19.97;17.13;;;16.40;99.90;15.80;100138;;;;561914;251;24204;-75
2023/09/12 01:57:39;;;;;;;25.03;18.23;;;16.40;99.90;15.80;100141;;;;561753;251;24136;-79
2023/09/12 02:00:08;;;;;;;24.30;18.57;;;16.40;99.90;15.80;100137;;;;561549;251;24109;-79
2023/09/12 02:02:35;;;;;;;22.43;17.87;;;16.40;99.90;15.70;100140;;;;562154;251;24123;-79
2023/09/12 02:05:22;;;;;;;21.77;17.60;;;16.40;99.90;15.80;100130;;;;561921;251;24131;-80
2023/09/12 02:07:49;;;;;;;23.57;17.13;;;16.40;99.90;15.80;100134;;;;561614;251;24181;-79
2023/09/12 02:10:21;;;;;;;20.37;16.90;;;16.40;99.90;15.80;100136;;;;561950;251;24105;-78
2023/09/12 02:12:45;;;;;;;18.10;15.97;;;16.40;99.90;15.80;100137;;;;561678;251;24117;-76
2023/09/12 02:15:16;;;;;;;22.77;17.70;;;16.40;99.90;15.80;100135;;;;561953;251;24120;-75
2023/09/12 02:17:42;;;;;;;20.30;16.97;;;16.40;99.90;15.80;100135;;;;561663;251;24124;-75
2023/09/12 02:20:11;;;;;;;21.73;17.50;;;16.40;99.90;15.80;100125;;;;561825;251;24141;-76
2023/09/12 02:22:38;;;;;;;18.77;16.47;;;16.40;99.90;15.80;100128;;;;562520;249;24109;-77
2023/09/12 02:25:10;;;;;;;19.83;17.50;;;16.40;99.90;15.80;100128;;;;566738;250;24165;-76
2023/09/12 02:27:34;;;;;;;21.03;17.53;;;16.40;99.90;15.70;100132;;;;563004;250;24159;-77
2023/09/12 02:30:02;;;;;;;20.97;17.30;;;16.40;99.90;15.70;100132;;;;563426;250;24123;-78
2023/09/12 02:32:30;;;;;;;21.30;16.63;;;16.40;99.90;15.70;100125;;;;563200;251;24130;-76
2023/09/12 02:34:58;;;;;;;17.63;15.77;;;16.40;99.90;15.70;100130;;;;562969;251;23138;-75
2023/09/12 02:37:26;;;;;;;26.33;17.07;;;16.40;99.90;15.70;100129;;;;563110;251;24155;-76
2023/09/12 02:39:54;;;;;;;31.30;18.80;;;16.30;99.90;15.70;100128;;;;563080;251;24159;-76
2023/09/12 02:42:22;;;;;;;19.43;16.67;;;16.30;99.90;15.70;100132;;;;563672;251;24131;-74
2023/09/12 02:44:50;;;;;;;25.67;18.53;;;16.30;99.90;15.60;100135;;;;563703;251;24133;-83
2023/09/12 02:47:18;;;;;;;18.20;15.53;;;16.30;99.90;15.60;100132;;;;562363;251;24112;-79
2023/09/12 02:49:46;;;;;;;19.57;16.83;;;16.20;99.90;15.60;100132;;;;562067;251;24116;-77
2023/09/12 02:52:13;;;;;;;19.23;16.07;;;16.20;99.90;15.60;100137;;;;565210;251;24182;-79
2023/09/12 02:54:42;;;;;;;18.53;16.53;;;16.20;99.90;15.50;100135;;;;562426;251;24126;-78
2023/09/12 02:57:11;;;;;;;19.33;17.13;;;16.10;99.90;15.50;100136;;;;562407;251;24133;-78
2023/09/12 02:59:40;;;;;;;25.33;17.33;;;16.10;99.90;15.40;100137;;;;562266;251;24113;-77
2023/09/12 03:02:08;;;;;;;22.33;18.87;;;16.00;99.90;15.40;100131;;;;562215;251;24141;-76
2023/09/12 03:04:37;;;;;;;21.53;18.27;;;16.00;99.90;15.30;100142;;;;561918;251;24129;-77
2023/09/12 03:07:05;;;;;;;19.40;16.93;;;16.00;99.90;15.30;100129;;;;561783;251;24254;-79
2023/09/12 03:09:33;;;;;;;23.87;18.40;;;15.90;99.90;15.30;100131;;;;561880;251;24105;-76
2023/09/12 03:12:04;;;;;;;22.67;18.47;;;15.90;99.90;15.20;100135;;;;561840;251;24124;-76
2023/09/12 03:14:35;;;;;;;20.17;17.57;;;15.90;99.90;15.20;100132;;;;561786;251;24122;-77
2023/09/12 03:17:00;;;;;;;22.57;17.17;;;15.80;99.90;15.10;100136;;;;561478;251;24200;-78
2023/09/12 03:19:28;;;;;;;26.10;23.35;;;15.80;99.90;15.10;100139;;;;557286;251;46476;-75
2023/09/12 03:21:55;;;;;;;21.93;19.13;;;15.70;99.90;15.00;100137;;;;561488;251;24114;-81
2023/09/12 03:24:24;;;;;;;20.07;17.80;;;15.70;99.90;15.00;100128;;;;562283;251;24129;-80
2023/09/12 03:26:51;;;;;;;21.63;16.47;;;15.60;99.90;15.00;100124;;;;562261;251;24126;-82
2023/09/12 03:29:23;;;;;;;18.87;16.57;;;15.70;99.90;15.00;100135;;;;562290;251;24135;-80
2023/09/12 03:31:47;;;;;;;18.90;15.37;;;15.70;99.90;15.00;100131;;;;561741;251;24133;-80
2023/09/12 03:34:15;;;;;;;19.47;16.23;;;15.70;99.90;15.10;100133;;;;562272;250;24110;-79
2023/09/12 03:36:43;;;;;;;23.47;16.60;;;15.70;99.90;15.10;100128;;;;563116;250;24270;-75
2023/09/12 03:39:13;;;;;;;26.35;23.45;;;15.70;99.90;15.10;100124;;;;558028;250;57490;-77
2023/09/12 03:41:43;;;;;;;21.33;18.63;;;15.70;99.90;15.10;100128;;;;562382;250;24234;-79
2023/09/12 03:44:08;;;;;;;22.03;17.10;;;15.70;99.90;15.10;100125;;;;562136;251;24105;-79
2023/09/12 03:46:35;;;;;;;21.10;17.33;;;15.70;99.90;15.00;100130;;;;562313;251;24097;-77
2023/09/12 03:49:03;;;;;;;21.47;17.37;;;15.70;99.90;15.10;100133;;;;562770;251;24099;-77
2023/09/12 03:51:31;;;;;;;21.27;16.57;;;15.70;99.90;15.10;100123;;;;562645;251;24112;-75
2023/09/12 03:53:59;;;;;;;24.63;17.93;;;15.70;99.90;15.10;100126;;;;562286;251;24140;-80
2023/09/12 03:56:27;;;;;;;20.37;18.03;;;15.70;99.90;15.10;100126;;;;563023;251;24147;-80
2023/09/12 03:58:57;;;;;;;22.13;17.93;;;15.70;99.90;15.10;100128;;;;562809;251;24104;-76
2023/09/12 04:01:23;;;;;;;29.17;19.60;;;15.70;99.90;15.10;100123;;;;562535;251;24164;-78
2023/09/12 04:03:51;;;;;;;21.60;17.43;;;15.70;99.90;15.10;100124;;;;562294;251;24148;-76
2023/09/12 04:06:22;;;;;;;23.67;18.17;;;15.70;99.90;15.10;100122;;;;562223;251;24152;-78
2023/09/12 04:08:47;;;;;;;29.15;26.12;;;15.70;99.90;15.10;100126;;;;557373;251;57376;-75
2023/09/12 04:11:15;;;;;;;23.03;20.60;;;15.70;99.90;15.20;100122;;;;561903;251;24145;-75
2023/09/12 04:13:43;;;;;;;24.20;18.77;;;15.80;99.90;15.20;100119;;;;562033;251;24122;-75
2023/09/12 04:16:12;;;;;;;28.35;25.35;;;15.80;99.90;15.20;100131;;;;557112;251;35529;-74
2023/09/12 04:18:40;;;;;;;25.23;20.53;;;15.80;99.90;15.20;100126;;;;562310;251;24144;-74
2023/09/12 04:21:11;;;;;;;23.60;18.53;;;15.90;99.90;15.30;100122;;;;561897;251;24108;-76
2023/09/12 04:23:36;;;;;;;22.80;18.53;;;15.90;99.90;15.30;100113;;;;561591;251;24122;-76
2023/09/12 04:26:04;;;;;;;22.33;17.33;;;15.90;99.90;15.30;100117;;;;561874;251;24160;-75
2023/09/12 04:28:32;;;;;;;21.67;17.83;;;15.90;99.90;15.30;100112;;;;561772;251;24143;-75
2023/09/12 04:31:06;;;;;;;25.97;19.80;;;16.00;99.90;15.40;100105;;;;561910;251;24148;-75
2023/09/12 04:33:34;;;;;;;22.27;17.97;;;16.00;99.90;15.40;100111;;;;561818;251;24160;-77
2023/09/12 04:36:05;;;;;;;23.67;18.27;;;16.00;99.90;15.50;100105;;;;562185;251;24219;-77
2023/09/12 04:38:33;;;;;;;19.03;16.93;;;16.10;99.90;15.50;100116;;;;561607;251;24141;-76
2023/09/12 04:41:02;;;;;;;21.07;17.53;;;16.20;99.90;15.60;100110;;;;562202;251;24151;-75
2023/09/12 04:43:27;;;;;;;21.93;16.53;;;16.30;99.90;15.70;100113;;;;561607;251;24187;-76
2023/09/12 04:45:58;;;;;;;21.57;17.17;;;16.40;99.90;15.80;100118;;;;562617;250;24138;-75
2023/09/12 04:48:24;;;;;;;22.63;17.70;;;16.50;99.90;15.90;100112;;;;563261;250;24111;-76
2023/09/12 04:50:53;;;;;;;23.03;18.27;;;16.60;99.90;16.00;100112;;;;563135;250;25175;-75
2023/09/12 04:53:22;;;;;;;25.63;18.17;;;16.70;99.90;16.10;100114;;;;562916;250;24142;-76
2023/09/12 04:55:50;;;;;;;34.87;19.13;;;16.80;99.90;16.20;100109;;;;562728;251;24132;-75
2023/09/12 04:58:19;;;;;;;34.93;18.97;;;16.90;99.90;16.30;100111;;;;561760;251;24143;-74
2023/09/12 05:00:48;;;;;;;23.63;18.63;;;17.00;99.90;16.40;100118;;;;562433;251;24118;-75
2023/09/12 05:03:20;;;;;;;28.27;17.73;;;17.10;99.90;16.60;100114;;;;562380;251;24117;-75
2023/09/12 05:05:48;;;;;;;28.50;17.40;;;17.20;99.90;16.70;100124;;;;561885;251;24125;-75
2023/09/12 05:08:16;;;;;;;24.30;18.90;;;17.20;99.90;16.80;100125;;;;562106;251;24183;-77
2023/09/12 05:10:47;;;;;;;25.00;18.37;;;17.40;99.90;16.90;100125;;;;562381;251;24109;-76
2023/09/12 05:13:15;;;;;;;24.57;17.10;;;17.50;99.90;17.10;100128;;;;562145;251;24112;-76
2023/09/12 05:15:42;;;;;;;18.93;16.60;;;17.70;99.90;17.50;100125;;;;561995;251;24129;-75
2023/09/12 05:18:14;;;;;;;26.90;17.30;;;18.00;99.90;18.50;100131;;;;562088;251;23185;-77
2023/09/12 05:20:38;;;;;;;18.40;15.53;;;18.80;99.90;19.70;100134;;;;561691;251;24145;-77
2023/09/12 05:23:10;;;;;;;20.10;16.20;;;21.30;99.90;21.00;100137;;;;561968;251;24152;-82
2023/09/12 05:25:35;;;;;;;18.57;14.57;;;21.20;99.90;22.10;100147;;;;561471;251;24206;-80
2023/09/12 05:28:07;;;;;;;18.20;13.47;;;22.40;99.90;23.20;100136;;;;562275;251;24121;-78
2023/09/12 05:30:31;;;;;;;16.23;12.80;;;23.60;99.90;24.20;100135;;;;561803;250;24157;-76
2023/09/12 05:32:59;;;;;;;21.77;13.40;;;24.60;99.90;25.10;100134;;;;562242;251;24211;-82
2023/09/12 05:35:27;;;;;;;15.37;13.17;;;25.50;99.90;25.90;100129;;;;562341;251;23131;-82
2023/09/12 05:37:57;;;;;;;14.43;12.97;;;26.30;99.90;26.80;100122;;;;562050;251;23137;-79
2023/09/12 05:40:23;;;;;;;15.03;11.33;;;27.10;99.90;27.60;100127;;;;562020;251;23130;-81
2023/09/12 05:42:50;;;;;;;14.57;11.43;;;28.00;99.90;28.40;100124;;;;561869;251;23169;-76
2023/09/12 05:45:18;;;;;;;16.45;11.65;;;28.80;99.90;29.10;100116;;;;561866;251;23213;-77
2023/09/12 05:47:48;;;;;;;16.12;11.95;;;30.30;99.90;29.90;100123;;;;564989;251;23135;-76
2023/09/12 05:50:16;;;;;;;13.80;12.40;;;31.10;99.90;30.70;100128;;;;561626;251;24147;-76
2023/09/12 05:52:45;;;;;;;15.88;10.73;;;31.80;99.60;31.40;100129;;;;562003;251;23154;-76
2023/09/12 05:55:13;;;;;;;13.85;11.38;;;32.30;97.20;31.90;100130;;;;561997;251;23123;-75
2023/09/12 05:57:42;;;;;;;13.23;11.85;;;32.80;94.40;32.50;100142;;;;562767;250;23152;-75
2023/09/12 06:00:11;;;;;;;16.02;10.98;;;32.80;94.40;32.90;100139;;;;563435;250;23181;-78
2023/09/12 06:02:42;;;;;;;14.57;11.00;;;33.80;90.80;33.50;100149;;;;563041;250;24141;-75
2023/09/12 06:05:08;;;;;;;12.98;10.55;;;34.50;87.10;34.20;100145;;;;562977;250;23148;-79
2023/09/12 06:07:37;;;;;;;13.38;11.65;;;35.00;83.30;34.70;100148;;;;562692;251;23220;-82
2023/09/12 06:10:07;;;;;;;18.23;11.10;;;35.00;83.30;35.10;100145;;;;562603;251;24105;-80
2023/09/12 06:12:32;;;;;;;13.10;10.45;;;35.50;80.10;35.80;100146;;;;562664;251;24144;-81
2023/09/12 06:15:03;;;;;;;14.20;10.20;;;36.00;75.30;36.20;100152;;;;562634;251;23126;-77
2023/09/12 06:17:31;;;;;;;11.70;10.57;;;36.60;73.20;36.90;100153;;;;562149;251;23123;-76
2023/09/12 06:19:56;;;;;;;12.23;10.77;;;37.20;71.40;37.50;100154;;;;562473;251;23155;-80
2023/09/12 06:22:24;;;;;;;12.65;10.50;;;37.70;66.90;37.80;100158;;;;562516;251;24145;-76
2023/09/12 06:24:52;;;;;;;11.55;9.60;;;38.10;64.80;38.20;100154;;;;562556;251;23153;-76
2023/09/12 06:27:20;;;;;;;11.65;10.15;;;39.00;60.90;38.80;100161;;;;573082;246;23166;-76
2023/09/12 06:29:49;;;;;;;10.93;9.82;;;39.40;59.90;39.20;100155;;;;583085;246;23173;-77
2023/09/12 06:32:24;;;;;;;10.80;9.57;;;39.90;58.90;39.80;100160;;;;562923;250;23142;-75
2023/09/12 06:34:49;;;;;;;16.73;10.52;;;39.90;58.90;40.30;100162;;;;573131;246;23148;-77
2023/09/12 06:37:18;;;;;;;11.15;9.80;;;40.90;56.00;40.80;100161;;;;574064;246;23084;-80
2023/09/12 06:39:46;;;;;;;10.85;9.75;;;41.40;55.20;41.30;100157;;;;573160;246;23098;-80
2023/09/12 06:42:14;;;;;;;10.98;9.98;;;41.40;55.20;41.60;100170;;;;562927;251;23170;-76
2023/09/12 06:44:42;;;;;;;17.73;10.20;;;41.80;54.30;42.00;100168;;;;573672;246;23124;-79
2023/09/12 06:47:10;;;;;;;17.87;10.27;;;42.50;52.90;42.40;100170;;;;573421;246;23112;-79
2023/09/12 06:49:39;;;;;;;17.37;10.98;;;42.90;51.80;42.90;100173;;;;574140;246;23168;-82
2023/09/12 06:52:09;;;;;;;11.57;10.02;;;43.30;51.20;43.30;100172;;;;562527;251;23100;-79
2023/09/12 06:54:36;;;;;;;17.37;10.02;;;43.30;51.20;43.70;100166;;;;562784;251;23137;-83
2023/09/12 06:57:04;;;;;;;15.40;9.38;;;43.70;50.50;44.20;100175;;;;563164;251;23146;-85
2023/09/12 06:59:32;;;;;;;15.75;10.27;;;44.20;49.40;44.50;100176;;;;573234;246;23097;-82
2023/09/12 07:01:59;;;;;;;16.58;9.73;;;44.60;48.50;44.70;100174;;;;574528;246;23106;-77
2023/09/12 07:04:27;;;;;;;13.30;9.23;;;44.90;48.10;44.90;100180;;;;573473;246;23100;-77
2023/09/12 07:06:55;;;;;;;14.98;9.85;;;45.00;47.70;45.30;100178;;;;558409;251;35446;-76
2023/09/12 07:09:23;;;;;;;13.98;9.55;;;45.30;46.60;45.60;100180;;;;574190;245;23187;-79
2023/09/12 07:11:52;;;;;;;16.80;8.88;;;45.70;46.60;46.00;100177;;;;574970;246;23162;-82
2023/09/12 07:14:20;;;;;;;18.98;9.30;;;46.10;46.00;46.40;100179;;;;572297;250;23206;-84
2023/09/12 07:16:47;;;;;;;13.52;9.15;;;46.50;45.60;46.80;100177;;;;574303;246;23116;-82
2023/09/12 07:19:15;;;;;;;16.15;9.35;;;46.80;44.70;47.00;100186;;;;572328;247;23120;-80
2023/09/12 07:21:43;;;;;;;14.25;9.02;;;47.10;44.30;47.20;100187;;;;574511;246;23183;-81
2023/09/12 07:24:12;;;;;;;11.85;8.35;;;47.30;44.10;47.60;100191;;;;564233;250;23120;-77
2023/09/12 07:26:40;;;;;;;16.33;8.90;;;47.60;43.70;47.90;100187;;;;574329;246;23169;-77
2023/09/12 07:29:08;;;;;;;18.45;8.13;;;47.90;43.20;48.10;100188;;;;574140;246;23072;-78
2023/09/12 07:31:36;;;;;;;13.15;8.90;;;48.20;42.90;48.50;100184;;;;571756;250;23156;-75
2023/09/12 07:34:04;;;;;;;24.15;9.73;;;48.60;42.90;48.80;100193;;;;573776;246;23127;-82
2023/09/12 07:36:32;;;;;;;18.45;9.07;;;48.80;42.10;49.00;100185;;;;563777;251;23128;-78
2023/09/12 07:39:00;;;;;;;11.50;8.32;;;49.20;41.30;49.20;100189;;;;573902;246;23085;-82
2023/09/12 07:41:29;;;;;;;11.82;8.27;;;49.50;41.20;49.50;100187;;;;574307;246;23172;-78
2023/09/12 07:44:01;;;;;;;13.70;7.12;;;49.50;41.10;49.80;100191;;;;563762;251;23117;-79
2023/09/12 07:46:30;;;;;;;8.48;7.70;;;49.90;40.20;50.10;100198;;;;574060;244;23117;-78
2023/09/12 07:48:56;;;;;;;8.95;6.72;;;50.20;40.20;50.40;100199;;;;573843;246;23135;-78
2023/09/12 07:51:24;;;;;;;14.45;7.45;;;50.40;40.00;50.70;100199;;;;563903;251;23178;-78
2023/09/12 07:53:52;;;;;;;22.13;8.52;;;50.70;39.70;51.00;100198;;;;572067;251;23158;-79
2023/09/12 07:56:21;;;;;;;15.10;8.95;;;51.00;39.70;51.30;100202;;;;574298;246;23106;-79
2023/09/12 07:58:49;;;;;;;20.40;8.40;;;51.40;39.50;51.50;100205;;;;563930;251;23134;-77
2023/09/12 08:01:18;;;;;;;22.87;8.77;;;51.70;39.40;51.80;100199;;;;573936;246;23187;-79
2023/09/12 08:03:46;;;;;;;17.55;7.97;;;52.00;39.20;52.00;100193;;;;573682;246;23125;-83
2023/09/12 08:06:14;;;;;;;13.98;8.93;;;52.30;38.60;52.00;100201;;;;563093;251;23169;-78
2023/09/12 08:08:42;;;;;;;15.82;8.82;;;52.40;38.80;52.20;100206;;;;573675;246;23092;-80
2023/09/12 08:11:10;;;;;;;15.65;8.60;;;52.50;38.60;52.40;100209;;;;573472;246;23085;-80
2023/09/12 08:13:37;;;;;;;16.02;7.68;;;52.80;38.20;52.40;100209;;;;563461;251;23148;-83
2023/09/12 08:16:09;;;;;;;9.23;6.78;;;52.90;37.90;52.40;100219;;;;573683;246;23132;-78
2023/09/12 08:18:33;;;;;;;17.87;7.62;;;52.90;37.60;52.60;100222;;;;573211;246;23161;-81
2023/09/12 08:21:02;;;;;;;8.98;7.15;;;53.00;37.40;52.70;100224;;;;564186;250;23131;-78
2023/09/12 08:23:29;;;;;;;9.63;7.75;;;53.20;37.20;53.00;100221;;;;574859;246;23099;-78
2023/09/12 08:25:57;;;;;;;15.85;7.45;;;53.50;36.80;53.20;100219;;;;564519;250;23119;-79
2023/09/12 08:28:29;;;;;;;7.25;6.32;;;53.80;35.90;53.20;100227;;;;572975;249;23175;-78
2023/09/12 08:30:54;;;;;;;22.85;7.60;;;53.80;35.80;53.30;100232;;;;574153;246;23152;-76
2023/09/12 08:33:22;;;;;;;13.18;6.65;;;53.90;36.20;53.40;100239;;;;572139;247;23207;-81
2023/09/12 08:35:50;;;;;;;20.58;7.55;;;54.10;35.40;53.20;100229;;;;573894;246;23103;-79
2023/09/12 08:38:18;;;;;;;19.10;7.90;;;54.10;35.10;53.00;100232;;;;563168;250;23127;-81
2023/09/12 08:40:51;;;;;;;16.20;7.65;;;54.00;35.20;53.10;100237;;;;572786;246;23153;-77
2023/09/12 08:43:20;;;;;;;7.82;7.12;;;54.00;35.50;53.10;100231;;;;573425;246;23101;-77
2023/09/12 08:45:51;;;;;;;9.20;7.35;;;54.00;35.50;53.20;100227;;;;563274;251;23116;-80
2023/09/12 08:48:19;;;;;;;14.15;7.25;;;54.10;35.40;53.40;100231;;;;573630;246;23099;-82
2023/09/12 08:50:47;;;;;;;10.43;6.85;;;54.30;35.30;53.40;100231;;;;563340;250;23126;-78
2023/09/12 08:53:15;;;;;;;16.62;6.60;;;54.40;34.80;53.60;100228;;;;572888;246;23145;-79
2023/09/12 08:55:45;;;;;;;13.07;7.20;;;54.40;34.80;53.40;100228;;;;562961;251;23217;-77
2023/09/12 08:58:13;;;;;;;16.98;7.20;;;54.50;35.30;53.40;100227;;;;573025;246;24198;-77
2023/09/12 09:00:41;;;;;;;15.75;7.35;;;54.50;34.50;53.40;100223;;;;573048;246;23078;-78
2023/09/12 09:03:13;;;;;;;17.40;7.30;;;54.40;34.10;53.20;100225;;;;570958;251;23230;-77
2023/09/12 09:05:39;;;;;;;15.02;6.75;;;54.40;33.90;53.30;100224;;;;561860;251;23185;-78
2023/09/12 09:08:07;;;;;;;12.15;7.22;;;54.50;33.40;53.30;100223;;;;572018;246;23184;-77
2023/09/12 09:10:35;;;;;;;7.10;6.40;;;54.50;33.10;52.90;100224;;;;562091;251;23165;-77
2023/09/12 09:13:06;;;;;;;11.12;7.32;;;54.40;33.20;52.90;100226;;;;572728;246;23129;-77
2023/09/12 09:15:31;;;;;;;7.37;6.40;;;54.30;33.60;52.60;100232;;;;577331;245;23185;-77
2023/09/12 09:18:03;;;;;;;11.30;6.53;;;54.10;33.80;52.40;100230;;;;573058;246;23085;-77
2023/09/12 09:20:37;;;;;;;8.23;6.60;;;53.90;33.80;52.60;100229;;;;563030;251;23122;-77
2023/09/12 09:23:01;;;;;;;13.15;7.05;;;53.90;34.00;52.90;100228;;;;562915;251;23132;-78
2023/09/12 09:25:31;;;;;;;8.85;7.07;;;54.20;33.60;52.60;100229;;;;562353;251;23122;-78
2023/09/12 09:27:56;;;;;;;6.93;6.37;;;54.10;33.60;52.60;100229;;;;581811;246;23199;-78
2023/09/12 09:30:42;;;;;;;10.33;6.67;;;54.00;34.20;52.70;100223;;;;569128;246;35364;-77
2023/09/12 09:33:13;;;;;;;7.22;6.68;;;54.20;34.30;52.70;100221;;;;568220;245;35337;-79
2023/09/12 09:35:41;;;;;;;10.50;6.70;;;54.40;33.80;52.70;100219;;;;569518;246;35328;-79
2023/09/12 09:38:06;;;;;;;7.35;6.50;;;54.50;33.30;52.70;100217;;;;573972;246;23196;-80
2023/09/12 09:40:34;;;;;;;12.88;6.80;;;54.50;33.40;52.60;100215;;;;574183;246;23163;-79
2023/09/12 09:43:02;;;;;;;12.95;6.60;;;54.40;33.10;52.80;100213;;;;574252;246;23091;-77
2023/09/12 09:45:33;;;;;;;17.45;6.97;;;54.50;32.90;53.10;100215;;;;574064;246;23098;-77
2023/09/12 09:48:01;;;;;;;15.70;6.93;;;54.80;32.70;53.10;100213;;;;573837;246;23118;-77
2023/09/12 09:50:27;;;;;;;11.90;6.72;;;54.60;32.30;52.70;100216;;;;573078;246;23100;-78
2023/09/12 09:52:58;;;;;;;9.52;5.93;;;54.60;32.20;52.70;100215;;;;573834;246;23112;-83
2023/09/12 09:55:26;;;;;;;14.68;5.97;;;54.50;32.40;52.40;100215;;;;573796;246;23065;-78
2023/09/12 09:57:54;;;;;;;6.55;5.90;;;54.50;32.20;52.30;100212;;;;573803;246;23097;-78
2023/09/12 10:00:21;;;;;;;8.32;6.43;;;54.40;32.10;52.30;100211;;;;582211;246;23092;-77
2023/09/12 10:02:54;;;;;;;15.80;6.95;;;54.40;32.50;51.80;100211;;;;573375;246;23195;-82
2023/09/12 10:05:21;;;;;;;7.97;5.97;;;54.10;32.20;51.40;100204;;;;570994;247;23160;-84
2023/09/12 10:07:46;;;;;;;8.60;6.50;;;53.70;32.60;51.40;100205;;;;572286;246;23100;-86
2023/09/12 10:10:17;;;;;;;6.37;5.93;;;53.50;32.10;50.50;100204;;;;571076;251;23077;-85
2023/09/12 10:12:52;;;;;;;6.80;6.05;;;51.70;33.50;49.30;100196;;;;572551;241;23075;-84
2023/09/12 10:15:17;;;;;;;10.43;6.37;;;51.60;33.40;47.60;100202;;;;566183;249;23126;-84
2023/09/12 10:17:45;;;;;;;20.30;7.05;;;49.90;34.20;45.90;100197;;;;563117;249;23104;-81
2023/09/12 10:20:13;;;;;;;8.30;5.47;;;48.20;35.40;44.10;100201;;;;563461;249;23109;-80
2023/09/12 10:22:45;;;;;;;9.57;6.15;;;46.30;36.40;42.70;100207;;;;565407;246;23099;-81
2023/09/12 10:25:09;;;;;;;7.00;6.37;;;44.70;37.70;41.40;100200;;;;561899;249;23101;-82
2023/09/12 10:27:37;;;;;;;13.00;6.32;;;43.20;38.90;40.30;100197;;;;566288;249;23153;-82
2023/09/12 10:30:05;;;;;;;7.82;6.47;;;41.90;40.00;39.30;100200;;;;566706;249;23116;-83
2023/09/12 10:32:36;;;;;;;11.32;6.40;;;40.60;40.60;38.40;100194;;;;575262;250;24101;-83
2023/09/12 10:35:01;;;;;;;21.17;8.15;;;39.50;42.50;37.70;100184;;;;565139;251;23139;-84
2023/09/12 10:37:39;;;;;;;14.90;6.90;;;37.80;44.80;36.90;100185;;;;572926;246;23153;-82
2023/09/12 10:39:58;;;;;;;9.18;5.95;;;37.00;45.40;36.20;100185;;;;571504;246;24132;-83
2023/09/12 10:42:26;;;;;;;8.32;6.35;;;37.00;45.40;35.50;100183;;;;563108;251;24145;-84
2023/09/12 10:44:57;;;;;;;12.37;6.55;;;36.30;45.90;35.00;100174;;;;583664;245;23111;-83
2023/09/12 10:47:26;;;;;;;17.98;6.82;;;35.70;46.90;34.50;100170;;;;564316;250;23128;-83
2023/09/12 10:49:53;;;;;;;9.10;6.10;;;35.10;48.50;34.00;100167;;;;564592;250;23148;-86
2023/09/12 10:52:28;;;;;;;12.73;7.05;;;34.60;49.20;33.50;100175;;;;556940;251;23107;-84
2023/09/12 10:54:59;;;;;;;12.37;6.75;;;34.10;49.70;33.00;100172;;;;567603;248;25232;-84
2023/09/12 10:57:28;;;;;;;9.30;6.05;;;33.60;50.60;32.60;100171;;;;569113;245;23084;-84
2023/09/12 11:00:00;;;;;;;10.75;7.07;;;33.20;51.60;32.30;100165;;;;577590;246;35379;-82
2023/09/12 11:02:41;;;;;;;7.12;6.43;;;32.80;52.60;32.00;100163;;;;563503;251;23240;-82